sensor_id;sensor_type;location;lat;lon;timestamp;P1;durP1;ratioP1;P2;durP2;ratioP2
68870;SDS011;55906;52.278;6.808;2023-05-16T00:01:22;7.33;;;3.63;;
68870;SDS011;55906;52.278;6.808;2023-05-16T00:03:49;8.13;;;4.22;;
68870;SDS011;55906;52.278;6.808;2023-05-16T00:06:17;9.68;;;4.22;;
68870;SDS011;55906;52.278;6.808;2023-05-16T00:08:43;11.90;;;4.50;;
68870;SDS011;55906;52.278;6.808;2023-05-16T00:11:10;12.57;;;4.55;;
68870;SDS011;55906;52.278;6.808;2023-05-16T00:13:36;13.77;;;4.00;;
68870;SDS011;55906;52.278;6.808;2023-05-16T00:16:06;8.77;;;4.25;;
68870;SDS011;55906;52.278;6.808;2023-05-16T00:18:33;8.82;;;4.35;;
68870;SDS011;55906;52.278;6.808;2023-05-16T00:21:01;12.18;;;4.82;;
68870;SDS011;55906;52.278;6.808;2023-05-16T00:23:30;12.25;;;3.72;;
68870;SDS011;55906;52.278;6.808;2023-05-16T00:25:56;15.17;;;4.67;;
68870;SDS011;55906;52.278;6.808;2023-05-16T00:28:23;11.68;;;4.10;;
68870;SDS011;55906;52.278;6.808;2023-05-16T00:30:50;8.60;;;4.40;;
68870;SDS011;55906;52.278;6.808;2023-05-16T00:33:16;12.63;;;4.13;;
68870;SDS011;55906;52.278;6.808;2023-05-16T00:35:43;11.50;;;4.32;;
68870;SDS011;55906;52.278;6.808;2023-05-16T00:38:10;12.67;;;4.50;;
68870;SDS011;55906;52.278;6.808;2023-05-16T00:40:38;11.27;;;4.07;;
68870;SDS011;55906;52.278;6.808;2023-05-16T00:43:05;11.18;;;4.63;;
68870;SDS011;55906;52.278;6.808;2023-05-16T00:45:31;12.45;;;4.63;;
68870;SDS011;55906;52.278;6.808;2023-05-16T00:47:58;17.83;;;5.00;;
68870;SDS011;55906;52.278;6.808;2023-05-16T00:50:24;14.00;;;4.80;;
68870;SDS011;55906;52.278;6.808;2023-05-16T00:52:51;10.10;;;4.38;;
68870;SDS011;55906;52.278;6.808;2023-05-16T00:55:18;9.50;;;4.25;;
68870;SDS011;55906;52.278;6.808;2023-05-16T00:57:46;14.73;;;4.53;;
68870;SDS011;55906;52.278;6.808;2023-05-16T01:00:13;10.43;;;4.25;;
68870;SDS011;55906;52.278;6.808;2023-05-16T01:02:40;8.77;;;4.00;;
68870;SDS011;55906;52.278;6.808;2023-05-16T01:05:08;10.48;;;4.80;;
68870;SDS011;55906;52.278;6.808;2023-05-16T01:07:35;11.40;;;4.35;;
68870;SDS011;55906;52.278;6.808;2023-05-16T01:10:02;12.32;;;4.93;;
68870;SDS011;55906;52.278;6.808;2023-05-16T01:12:34;11.90;;;4.15;;
68870;SDS011;55906;52.278;6.808;2023-05-16T01:15:07;11.43;;;4.80;;
68870;SDS011;55906;52.278;6.808;2023-05-16T01:17:37;15.02;;;4.70;;
68870;SDS011;55906;52.278;6.808;2023-05-16T01:20:17;12.63;;;4.82;;
68870;SDS011;55906;52.278;6.808;2023-05-16T01:23:04;14.05;;;5.07;;
68870;SDS011;55906;52.278;6.808;2023-05-16T01:25:49;11.10;;;4.50;;
68870;SDS011;55906;52.278;6.808;2023-05-16T01:28:24;12.93;;;5.00;;
68870;SDS011;55906;52.278;6.808;2023-05-16T01:30:52;13.35;;;4.78;;
68870;SDS011;55906;52.278;6.808;2023-05-16T01:33:19;13.88;;;4.63;;
68870;SDS011;55906;52.278;6.808;2023-05-16T01:35:47;13.00;;;5.30;;
68870;SDS011;55906;52.278;6.808;2023-05-16T01:38:21;13.48;;;6.25;;
68870;SDS011;55906;52.278;6.808;2023-05-16T01:40:52;12.00;;;5.47;;
68870;SDS011;55906;52.278;6.808;2023-05-16T01:43:24;11.98;;;5.00;;
68870;SDS011;55906;52.278;6.808;2023-05-16T01:45:59;9.85;;;3.88;;
68870;SDS011;55906;52.278;6.808;2023-05-16T01:48:31;10.90;;;3.95;;
68870;SDS011;55906;52.278;6.808;2023-05-16T01:51:04;10.50;;;4.75;;
68870;SDS011;55906;52.278;6.808;2023-05-16T01:53:32;10.77;;;4.37;;
68870;SDS011;55906;52.278;6.808;2023-05-16T01:56:04;14.80;;;4.30;;
68870;SDS011;55906;52.278;6.808;2023-05-16T01:58:37;11.50;;;4.72;;
68870;SDS011;55906;52.278;6.808;2023-05-16T02:01:04;13.98;;;5.70;;
68870;SDS011;55906;52.278;6.808;2023-05-16T02:03:31;10.35;;;4.63;;
68870;SDS011;55906;52.278;6.808;2023-05-16T02:05:58;14.27;;;4.70;;
68870;SDS011;55906;52.278;6.808;2023-05-16T02:08:25;16.75;;;5.85;;
68870;SDS011;55906;52.278;6.808;2023-05-16T02:10:53;13.05;;;4.60;;
68870;SDS011;55906;52.278;6.808;2023-05-16T02:13:20;11.13;;;5.18;;
68870;SDS011;55906;52.278;6.808;2023-05-16T02:15:48;10.88;;;4.28;;
68870;SDS011;55906;52.278;6.808;2023-05-16T02:18:15;16.80;;;5.77;;
68870;SDS011;55906;52.278;6.808;2023-05-16T02:20:42;14.82;;;4.72;;
68870;SDS011;55906;52.278;6.808;2023-05-16T02:23:09;9.48;;;4.43;;
68870;SDS011;55906;52.278;6.808;2023-05-16T02:25:36;12.98;;;4.07;;
68870;SDS011;55906;52.278;6.808;2023-05-16T02:28:03;11.52;;;4.20;;
68870;SDS011;55906;52.278;6.808;2023-05-16T02:30:29;10.27;;;4.27;;
68870;SDS011;55906;52.278;6.808;2023-05-16T02:32:57;15.18;;;4.78;;
68870;SDS011;55906;52.278;6.808;2023-05-16T02:35:25;12.85;;;4.68;;
68870;SDS011;55906;52.278;6.808;2023-05-16T02:37:52;11.05;;;4.43;;
68870;SDS011;55906;52.278;6.808;2023-05-16T02:40:19;10.30;;;4.20;;
68870;SDS011;55906;52.278;6.808;2023-05-16T02:42:46;11.47;;;4.33;;
68870;SDS011;55906;52.278;6.808;2023-05-16T02:45:12;9.18;;;3.83;;
68870;SDS011;55906;52.278;6.808;2023-05-16T02:47:39;10.43;;;3.75;;
68870;SDS011;55906;52.278;6.808;2023-05-16T02:50:08;9.25;;;4.03;;
68870;SDS011;55906;52.278;6.808;2023-05-16T02:52:35;13.10;;;3.95;;
68870;SDS011;55906;52.278;6.808;2023-05-16T02:55:01;12.97;;;4.33;;
68870;SDS011;55906;52.278;6.808;2023-05-16T02:57:28;15.02;;;4.55;;
68870;SDS011;55906;52.278;6.808;2023-05-16T02:59:54;8.63;;;4.25;;
68870;SDS011;55906;52.278;6.808;2023-05-16T03:02:21;8.80;;;3.85;;
68870;SDS011;55906;52.278;6.808;2023-05-16T03:04:48;10.20;;;3.88;;
68870;SDS011;55906;52.278;6.808;2023-05-16T03:07:16;10.40;;;3.73;;
68870;SDS011;55906;52.278;6.808;2023-05-16T03:09:42;13.80;;;4.05;;
68870;SDS011;55906;52.278;6.808;2023-05-16T03:12:09;12.15;;;3.97;;
68870;SDS011;55906;52.278;6.808;2023-05-16T03:14:35;8.25;;;4.10;;
68870;SDS011;55906;52.278;6.808;2023-05-16T03:17:02;8.48;;;3.88;;
68870;SDS011;55906;52.278;6.808;2023-05-16T03:19:29;8.33;;;4.50;;
68870;SDS011;55906;52.278;6.808;2023-05-16T03:21:56;12.30;;;4.97;;
68870;SDS011;55906;52.278;6.808;2023-05-16T03:24:24;12.35;;;4.30;;
68870;SDS011;55906;52.278;6.808;2023-05-16T03:26:50;7.55;;;3.75;;
68870;SDS011;55906;52.278;6.808;2023-05-16T03:29:17;8.43;;;4.20;;
68870;SDS011;55906;52.278;6.808;2023-05-16T03:31:43;9.03;;;4.23;;
68870;SDS011;55906;52.278;6.808;2023-05-16T03:34:10;9.30;;;3.80;;
68870;SDS011;55906;52.278;6.808;2023-05-16T03:36:37;9.38;;;3.75;;
68870;SDS011;55906;52.278;6.808;2023-05-16T03:39:04;11.38;;;4.20;;
68870;SDS011;55906;52.278;6.808;2023-05-16T03:41:32;10.48;;;3.78;;
68870;SDS011;55906;52.278;6.808;2023-05-16T03:43:59;9.60;;;4.20;;
68870;SDS011;55906;52.278;6.808;2023-05-16T03:46:26;7.45;;;4.25;;
68870;SDS011;55906;52.278;6.808;2023-05-16T03:48:52;11.52;;;4.10;;
68870;SDS011;55906;52.278;6.808;2023-05-16T03:51:19;10.10;;;3.83;;
68870;SDS011;55906;52.278;6.808;2023-05-16T03:53:46;7.93;;;4.13;;
68870;SDS011;55906;52.278;6.808;2023-05-16T03:56:12;8.83;;;4.37;;
68870;SDS011;55906;52.278;6.808;2023-05-16T03:58:40;10.05;;;3.72;;
68870;SDS011;55906;52.278;6.808;2023-05-16T04:01:07;14.18;;;5.13;;
68870;SDS011;55906;52.278;6.808;2023-05-16T04:03:34;11.88;;;4.43;;
68870;SDS011;55906;52.278;6.808;2023-05-16T04:06:02;6.82;;;4.03;;
68870;SDS011;55906;52.278;6.808;2023-05-16T04:08:29;8.43;;;3.80;;
68870;SDS011;55906;52.278;6.808;2023-05-16T04:10:56;10.95;;;4.10;;
68870;SDS011;55906;52.278;6.808;2023-05-16T04:13:22;13.52;;;4.30;;
68870;SDS011;55906;52.278;6.808;2023-05-16T04:15:50;8.73;;;3.60;;
68870;SDS011;55906;52.278;6.808;2023-05-16T04:18:17;10.52;;;4.55;;
68870;SDS011;55906;52.278;6.808;2023-05-16T04:20:44;10.33;;;4.23;;
68870;SDS011;55906;52.278;6.808;2023-05-16T04:23:11;10.05;;;4.55;;
68870;SDS011;55906;52.278;6.808;2023-05-16T04:25:38;10.15;;;4.07;;
68870;SDS011;55906;52.278;6.808;2023-05-16T04:28:05;9.88;;;3.97;;
68870;SDS011;55906;52.278;6.808;2023-05-16T04:30:31;7.63;;;3.78;;
68870;SDS011;55906;52.278;6.808;2023-05-16T04:32:59;10.80;;;3.97;;
68870;SDS011;55906;52.278;6.808;2023-05-16T04:35:26;11.00;;;3.97;;
68870;SDS011;55906;52.278;6.808;2023-05-16T04:37:53;8.25;;;3.75;;
68870;SDS011;55906;52.278;6.808;2023-05-16T04:40:20;9.18;;;4.40;;
68870;SDS011;55906;52.278;6.808;2023-05-16T04:42:48;10.02;;;3.95;;
68870;SDS011;55906;52.278;6.808;2023-05-16T04:45:15;11.47;;;4.70;;
68870;SDS011;55906;52.278;6.808;2023-05-16T04:47:41;11.52;;;4.70;;
68870;SDS011;55906;52.278;6.808;2023-05-16T04:50:10;15.20;;;4.90;;
68870;SDS011;55906;52.278;6.808;2023-05-16T04:52:37;7.43;;;3.90;;
68870;SDS011;55906;52.278;6.808;2023-05-16T04:55:03;8.77;;;3.70;;
68870;SDS011;55906;52.278;6.808;2023-05-16T04:57:31;8.03;;;3.90;;
68870;SDS011;55906;52.278;6.808;2023-05-16T04:59:57;15.25;;;3.83;;
68870;SDS011;55906;52.278;6.808;2023-05-16T05:02:24;10.40;;;4.45;;
68870;SDS011;55906;52.278;6.808;2023-05-16T05:04:51;10.65;;;4.28;;
68870;SDS011;55906;52.278;6.808;2023-05-16T05:07:19;9.57;;;4.57;;
68870;SDS011;55906;52.278;6.808;2023-05-16T05:09:45;6.43;;;3.63;;
68870;SDS011;55906;52.278;6.808;2023-05-16T05:12:12;10.68;;;4.07;;
68870;SDS011;55906;52.278;6.808;2023-05-16T05:14:38;12.73;;;4.03;;
68870;SDS011;55906;52.278;6.808;2023-05-16T05:17:05;11.88;;;4.38;;
68870;SDS011;55906;52.278;6.808;2023-05-16T05:19:31;9.95;;;4.30;;
68870;SDS011;55906;52.278;6.808;2023-05-16T05:21:58;12.60;;;4.47;;
68870;SDS011;55906;52.278;6.808;2023-05-16T05:24:26;9.88;;;3.88;;
68870;SDS011;55906;52.278;6.808;2023-05-16T05:26:53;14.10;;;4.20;;
68870;SDS011;55906;52.278;6.808;2023-05-16T05:29:19;9.20;;;4.82;;
68870;SDS011;55906;52.278;6.808;2023-05-16T05:31:46;9.77;;;3.97;;
68870;SDS011;55906;52.278;6.808;2023-05-16T05:34:13;9.20;;;4.37;;
68870;SDS011;55906;52.278;6.808;2023-05-16T05:36:40;10.50;;;3.92;;
68870;SDS011;55906;52.278;6.808;2023-05-16T05:39:06;8.25;;;3.97;;
68870;SDS011;55906;52.278;6.808;2023-05-16T05:41:35;16.33;;;3.42;;
68870;SDS011;55906;52.278;6.808;2023-05-16T05:44:01;8.38;;;3.60;;
68870;SDS011;55906;52.278;6.808;2023-05-16T05:46:28;9.27;;;3.77;;
68870;SDS011;55906;52.278;6.808;2023-05-16T05:48:55;10.05;;;3.97;;
68870;SDS011;55906;52.278;6.808;2023-05-16T05:51:22;10.52;;;4.45;;
68870;SDS011;55906;52.278;6.808;2023-05-16T05:53:50;10.63;;;4.25;;
68870;SDS011;55906;52.278;6.808;2023-05-16T05:56:17;8.35;;;3.60;;
68870;SDS011;55906;52.278;6.808;2023-05-16T05:58:46;8.57;;;3.53;;
68870;SDS011;55906;52.278;6.808;2023-05-16T06:01:13;10.60;;;3.70;;
68870;SDS011;55906;52.278;6.808;2023-05-16T06:03:40;9.32;;;3.78;;
68870;SDS011;55906;52.278;6.808;2023-05-16T06:06:07;9.07;;;4.43;;
68870;SDS011;55906;52.278;6.808;2023-05-16T06:08:33;14.57;;;4.07;;
68870;SDS011;55906;52.278;6.808;2023-05-16T06:11:00;7.77;;;3.47;;
68870;SDS011;55906;52.278;6.808;2023-05-16T06:13:27;7.53;;;3.92;;
68870;SDS011;55906;52.278;6.808;2023-05-16T06:15:55;8.68;;;3.65;;
68870;SDS011;55906;52.278;6.808;2023-05-16T06:18:22;13.20;;;4.07;;
68870;SDS011;55906;52.278;6.808;2023-05-16T06:20:49;10.00;;;3.67;;
68870;SDS011;55906;52.278;6.808;2023-05-16T06:23:16;11.37;;;4.10;;
68870;SDS011;55906;52.278;6.808;2023-05-16T06:25:42;6.53;;;2.97;;
68870;SDS011;55906;52.278;6.808;2023-05-16T06:28:09;12.70;;;4.32;;
68870;SDS011;55906;52.278;6.808;2023-05-16T06:30:35;9.68;;;3.63;;
68870;SDS011;55906;52.278;6.808;2023-05-16T06:33:03;12.07;;;4.03;;
68870;SDS011;55906;52.278;6.808;2023-05-16T06:35:30;11.07;;;3.83;;
68870;SDS011;55906;52.278;6.808;2023-05-16T06:37:57;8.68;;;3.75;;
68870;SDS011;55906;52.278;6.808;2023-05-16T06:40:23;7.93;;;3.67;;
68870;SDS011;55906;52.278;6.808;2023-05-16T06:42:50;7.88;;;3.47;;
68870;SDS011;55906;52.278;6.808;2023-05-16T06:45:16;10.90;;;3.97;;
68870;SDS011;55906;52.278;6.808;2023-05-16T06:47:43;8.73;;;3.80;;
68870;SDS011;55906;52.278;6.808;2023-05-16T06:50:11;9.15;;;3.58;;
68870;SDS011;55906;52.278;6.808;2023-05-16T06:52:38;5.57;;;3.28;;
68870;SDS011;55906;52.278;6.808;2023-05-16T06:55:06;10.27;;;3.42;;
68870;SDS011;55906;52.278;6.808;2023-05-16T06:57:33;8.93;;;3.50;;
68870;SDS011;55906;52.278;6.808;2023-05-16T06:59:59;6.77;;;4.00;;
68870;SDS011;55906;52.278;6.808;2023-05-16T07:02:26;8.15;;;4.05;;
68870;SDS011;55906;52.278;6.808;2023-05-16T07:04:53;10.05;;;3.40;;
68870;SDS011;55906;52.278;6.808;2023-05-16T07:07:21;5.50;;;3.30;;
68870;SDS011;55906;52.278;6.808;2023-05-16T07:09:48;10.70;;;3.35;;
68870;SDS011;55906;52.278;6.808;2023-05-16T07:12:15;9.67;;;3.03;;
68870;SDS011;55906;52.278;6.808;2023-05-16T07:14:42;6.10;;;3.10;;
68870;SDS011;55906;52.278;6.808;2023-05-16T07:17:09;7.53;;;3.10;;
68870;SDS011;55906;52.278;6.808;2023-05-16T07:19:35;7.60;;;3.40;;
68870;SDS011;55906;52.278;6.808;2023-05-16T07:22:02;9.30;;;3.33;;
68870;SDS011;55906;52.278;6.808;2023-05-16T07:24:30;9.20;;;3.23;;
68870;SDS011;55906;52.278;6.808;2023-05-16T07:26:58;9.73;;;3.20;;
68870;SDS011;55906;52.278;6.808;2023-05-16T07:29:25;9.23;;;3.03;;
68870;SDS011;55906;52.278;6.808;2023-05-16T07:31:52;9.52;;;2.70;;
68870;SDS011;55906;52.278;6.808;2023-05-16T07:34:18;7.30;;;2.78;;
68870;SDS011;55906;52.278;6.808;2023-05-16T07:36:45;5.97;;;3.53;;
68870;SDS011;55906;52.278;6.808;2023-05-16T07:39:11;7.38;;;2.50;;
68870;SDS011;55906;52.278;6.808;2023-05-16T07:41:40;6.75;;;2.83;;
68870;SDS011;55906;52.278;6.808;2023-05-16T07:44:06;5.15;;;2.58;;
68870;SDS011;55906;52.278;6.808;2023-05-16T07:46:33;7.18;;;2.60;;
68870;SDS011;55906;52.278;6.808;2023-05-16T07:48:59;6.53;;;2.80;;
68870;SDS011;55906;52.278;6.808;2023-05-16T07:51:26;7.10;;;2.63;;
68870;SDS011;55906;52.278;6.808;2023-05-16T07:53:53;6.55;;;2.80;;
68870;SDS011;55906;52.278;6.808;2023-05-16T07:56:19;5.05;;;2.80;;
68870;SDS011;55906;52.278;6.808;2023-05-16T07:58:49;7.93;;;2.90;;
68870;SDS011;55906;52.278;6.808;2023-05-16T08:01:15;7.70;;;2.90;;
68870;SDS011;55906;52.278;6.808;2023-05-16T08:03:42;5.85;;;2.80;;
68870;SDS011;55906;52.278;6.808;2023-05-16T08:06:09;6.13;;;2.55;;
68870;SDS011;55906;52.278;6.808;2023-05-16T08:08:35;7.00;;;2.40;;
68870;SDS011;55906;52.278;6.808;2023-05-16T08:11:02;6.28;;;2.58;;
68870;SDS011;55906;52.278;6.808;2023-05-16T08:13:29;7.07;;;3.07;;
68870;SDS011;55906;52.278;6.808;2023-05-16T08:15:58;7.82;;;3.40;;
68870;SDS011;55906;52.278;6.808;2023-05-16T08:18:24;8.15;;;3.15;;
68870;SDS011;55906;52.278;6.808;2023-05-16T08:20:51;6.78;;;2.65;;
68870;SDS011;55906;52.278;6.808;2023-05-16T08:23:18;6.18;;;2.45;;
68870;SDS011;55906;52.278;6.808;2023-05-16T08:25:45;6.47;;;2.60;;
68870;SDS011;55906;52.278;6.808;2023-05-16T08:28:11;5.60;;;2.88;;
68870;SDS011;55906;52.278;6.808;2023-05-16T08:30:38;6.57;;;3.13;;
68870;SDS011;55906;52.278;6.808;2023-05-16T08:33:06;5.53;;;2.45;;
68870;SDS011;55906;52.278;6.808;2023-05-16T08:35:34;8.68;;;2.83;;
68870;SDS011;55906;52.278;6.808;2023-05-16T08:38:00;9.37;;;3.27;;
68870;SDS011;55906;52.278;6.808;2023-05-16T08:40:28;5.93;;;2.45;;
68870;SDS011;55906;52.278;6.808;2023-05-16T08:42:55;6.82;;;2.40;;
68870;SDS011;55906;52.278;6.808;2023-05-16T08:45:23;5.22;;;2.30;;
68870;SDS011;55906;52.278;6.808;2023-05-16T08:47:51;6.15;;;2.67;;
68870;SDS011;55906;52.278;6.808;2023-05-16T08:50:22;5.40;;;2.27;;
68870;SDS011;55906;52.278;6.808;2023-05-16T08:52:50;6.10;;;2.60;;
68870;SDS011;55906;52.278;6.808;2023-05-16T08:55:18;11.52;;;3.10;;
68870;SDS011;55906;52.278;6.808;2023-05-16T08:57:47;6.55;;;2.78;;
68870;SDS011;55906;52.278;6.808;2023-05-16T09:00:15;5.82;;;2.35;;
68870;SDS011;55906;52.278;6.808;2023-05-16T09:02:43;6.20;;;2.47;;
68870;SDS011;55906;52.278;6.808;2023-05-16T09:05:11;7.28;;;2.50;;
68870;SDS011;55906;52.278;6.808;2023-05-16T09:07:40;6.35;;;2.60;;
68870;SDS011;55906;52.278;6.808;2023-05-16T09:10:08;6.43;;;2.22;;
68870;SDS011;55906;52.278;6.808;2023-05-16T09:12:36;5.30;;;2.00;;
68870;SDS011;55906;52.278;6.808;2023-05-16T09:15:03;5.63;;;2.27;;
68870;SDS011;55906;52.278;6.808;2023-05-16T09:17:33;7.32;;;2.25;;
68870;SDS011;55906;52.278;6.808;2023-05-16T09:20:07;4.07;;;2.00;;
68870;SDS011;55906;52.278;6.808;2023-05-16T09:22:34;6.35;;;2.00;;
68870;SDS011;55906;52.278;6.808;2023-05-16T09:25:02;5.43;;;2.10;;
68870;SDS011;55906;52.278;6.808;2023-05-16T09:27:30;5.07;;;1.63;;
68870;SDS011;55906;52.278;6.808;2023-05-16T09:29:57;7.30;;;2.22;;
68870;SDS011;55906;52.278;6.808;2023-05-16T09:32:24;6.85;;;2.10;;
68870;SDS011;55906;52.278;6.808;2023-05-16T09:34:51;4.90;;;1.77;;
68870;SDS011;55906;52.278;6.808;2023-05-16T09:37:21;7.88;;;2.13;;
68870;SDS011;55906;52.278;6.808;2023-05-16T09:39:49;4.50;;;2.00;;
68870;SDS011;55906;52.278;6.808;2023-05-16T09:42:18;5.03;;;2.28;;
68870;SDS011;55906;52.278;6.808;2023-05-16T09:44:45;6.72;;;2.03;;
68870;SDS011;55906;52.278;6.808;2023-05-16T09:47:15;6.70;;;2.53;;
68870;SDS011;55906;52.278;6.808;2023-05-16T09:49:42;5.93;;;2.20;;
68870;SDS011;55906;52.278;6.808;2023-05-16T09:52:10;5.83;;;2.13;;
68870;SDS011;55906;52.278;6.808;2023-05-16T09:54:38;6.50;;;1.83;;
68870;SDS011;55906;52.278;6.808;2023-05-16T09:57:05;5.28;;;2.33;;
68870;SDS011;55906;52.278;6.808;2023-05-16T09:59:35;6.65;;;2.38;;
68870;SDS011;55906;52.278;6.808;2023-05-16T10:02:02;4.90;;;2.05;;
68870;SDS011;55906;52.278;6.808;2023-05-16T10:04:30;6.17;;;2.10;;
68870;SDS011;55906;52.278;6.808;2023-05-16T10:06:59;5.55;;;2.20;;
68870;SDS011;55906;52.278;6.808;2023-05-16T10:09:27;5.05;;;2.00;;
68870;SDS011;55906;52.278;6.808;2023-05-16T10:11:57;6.80;;;1.90;;
68870;SDS011;55906;52.278;6.808;2023-05-16T10:14:27;4.68;;;2.20;;
68870;SDS011;55906;52.278;6.808;2023-05-16T10:16:57;6.63;;;2.03;;
68870;SDS011;55906;52.278;6.808;2023-05-16T10:19:24;6.53;;;2.00;;
68870;SDS011;55906;52.278;6.808;2023-05-16T10:21:52;8.13;;;2.22;;
68870;SDS011;55906;52.278;6.808;2023-05-16T10:24:25;5.53;;;1.80;;
68870;SDS011;55906;52.278;6.808;2023-05-16T10:26:56;7.07;;;2.40;;
68870;SDS011;55906;52.278;6.808;2023-05-16T10:29:23;7.17;;;2.37;;
68870;SDS011;55906;52.278;6.808;2023-05-16T10:31:50;6.97;;;2.40;;
68870;SDS011;55906;52.278;6.808;2023-05-16T10:34:19;6.00;;;2.10;;
68870;SDS011;55906;52.278;6.808;2023-05-16T10:36:46;7.68;;;2.58;;
68870;SDS011;55906;52.278;6.808;2023-05-16T10:39:13;6.72;;;2.30;;
68870;SDS011;55906;52.278;6.808;2023-05-16T10:41:40;9.17;;;2.43;;
68870;SDS011;55906;52.278;6.808;2023-05-16T10:44:11;5.40;;;1.98;;
68870;SDS011;55906;52.278;6.808;2023-05-16T10:46:40;6.03;;;1.98;;
68870;SDS011;55906;52.278;6.808;2023-05-16T10:49:21;5.60;;;1.90;;
68870;SDS011;55906;52.278;6.808;2023-05-16T10:52:01;4.05;;;1.67;;
68870;SDS011;55906;52.278;6.808;2023-05-16T10:54:36;5.82;;;1.60;;
68870;SDS011;55906;52.278;6.808;2023-05-16T10:57:05;6.03;;;2.17;;
68870;SDS011;55906;52.278;6.808;2023-05-16T10:59:40;4.38;;;1.60;;
68870;SDS011;55906;52.278;6.808;2023-05-16T11:02:22;6.95;;;1.58;;
68870;SDS011;55906;52.278;6.808;2023-05-16T11:04:52;6.72;;;1.75;;
68870;SDS011;55906;52.278;6.808;2023-05-16T11:07:20;4.15;;;1.73;;
68870;SDS011;55906;52.278;6.808;2023-05-16T11:10:00;5.55;;;1.92;;
68870;SDS011;55906;52.278;6.808;2023-05-16T11:12:36;5.07;;;1.63;;
68870;SDS011;55906;52.278;6.808;2023-05-16T11:18:02;4.72;;;1.98;;
68870;SDS011;55906;52.278;6.808;2023-05-16T11:20:32;5.57;;;1.65;;
68870;SDS011;55906;52.278;6.808;2023-05-16T11:23:19;4.30;;;1.52;;
68870;SDS011;55906;52.278;6.808;2023-05-16T11:25:48;6.85;;;1.75;;
68870;SDS011;55906;52.278;6.808;2023-05-16T11:28:18;5.32;;;1.50;;
68870;SDS011;55906;52.278;6.808;2023-05-16T11:30:47;4.25;;;1.55;;
68870;SDS011;55906;52.278;6.808;2023-05-16T11:33:15;8.20;;;1.60;;
68870;SDS011;55906;52.278;6.808;2023-05-16T11:35:43;5.47;;;1.85;;
68870;SDS011;55906;52.278;6.808;2023-05-16T11:38:25;4.28;;;1.60;;
68870;SDS011;55906;52.278;6.808;2023-05-16T11:40:52;5.05;;;1.83;;
68870;SDS011;55906;52.278;6.808;2023-05-16T11:43:18;7.97;;;2.15;;
68870;SDS011;55906;52.278;6.808;2023-05-16T11:45:45;4.85;;;1.98;;
68870;SDS011;55906;52.278;6.808;2023-05-16T11:48:12;9.27;;;2.58;;
68870;SDS011;55906;52.278;6.808;2023-05-16T11:50:38;5.18;;;2.20;;
68870;SDS011;55906;52.278;6.808;2023-05-16T11:53:06;4.82;;;1.90;;
68870;SDS011;55906;52.278;6.808;2023-05-16T11:55:33;6.13;;;1.95;;
68870;SDS011;55906;52.278;6.808;2023-05-16T11:58:01;10.93;;;2.10;;
68870;SDS011;55906;52.278;6.808;2023-05-16T12:00:28;5.57;;;2.08;;
68870;SDS011;55906;52.278;6.808;2023-05-16T12:02:59;5.15;;;1.90;;
68870;SDS011;55906;52.278;6.808;2023-05-16T12:05:28;5.80;;;1.85;;
68870;SDS011;55906;52.278;6.808;2023-05-16T12:07:56;6.28;;;1.98;;
68870;SDS011;55906;52.278;6.808;2023-05-16T12:10:25;4.35;;;2.15;;
68870;SDS011;55906;52.278;6.808;2023-05-16T12:12:51;5.28;;;1.70;;
68870;SDS011;55906;52.278;6.808;2023-05-16T12:15:19;5.55;;;2.00;;
68870;SDS011;55906;52.278;6.808;2023-05-16T12:17:46;5.13;;;1.63;;
68870;SDS011;55906;52.278;6.808;2023-05-16T12:20:14;6.07;;;1.75;;
68870;SDS011;55906;52.278;6.808;2023-05-16T12:22:42;5.63;;;2.05;;
68870;SDS011;55906;52.278;6.808;2023-05-16T12:25:21;5.88;;;2.35;;
68870;SDS011;55906;52.278;6.808;2023-05-16T12:27:51;6.57;;;2.10;;
68870;SDS011;55906;52.278;6.808;2023-05-16T12:30:20;5.55;;;1.90;;
68870;SDS011;55906;52.278;6.808;2023-05-16T12:32:51;7.43;;;2.00;;
68870;SDS011;55906;52.278;6.808;2023-05-16T12:35:18;5.38;;;1.80;;
68870;SDS011;55906;52.278;6.808;2023-05-16T12:37:45;5.50;;;1.85;;
68870;SDS011;55906;52.278;6.808;2023-05-16T12:40:11;9.60;;;2.00;;
68870;SDS011;55906;52.278;6.808;2023-05-16T12:42:39;4.30;;;1.45;;
68870;SDS011;55906;52.278;6.808;2023-05-16T12:45:13;6.25;;;1.85;;
68870;SDS011;55906;52.278;6.808;2023-05-16T12:47:41;6.70;;;1.77;;
68870;SDS011;55906;52.278;6.808;2023-05-16T12:50:08;6.65;;;1.73;;
68870;SDS011;55906;52.278;6.808;2023-05-16T12:52:44;5.82;;;1.88;;
68870;SDS011;55906;52.278;6.808;2023-05-16T12:55:12;4.72;;;1.77;;
68870;SDS011;55906;52.278;6.808;2023-05-16T12:57:41;6.65;;;2.03;;
68870;SDS011;55906;52.278;6.808;2023-05-16T13:00:09;7.05;;;2.25;;
68870;SDS011;55906;52.278;6.808;2023-05-16T13:02:37;5.63;;;2.30;;
68870;SDS011;55906;52.278;6.808;2023-05-16T13:05:04;8.98;;;2.28;;
68870;SDS011;55906;52.278;6.808;2023-05-16T13:07:31;7.38;;;2.25;;
68870;SDS011;55906;52.278;6.808;2023-05-16T13:09:58;7.25;;;2.20;;
68870;SDS011;55906;52.278;6.808;2023-05-16T13:12:24;6.50;;;2.30;;
68870;SDS011;55906;52.278;6.808;2023-05-16T13:14:53;9.27;;;3.05;;
68870;SDS011;55906;52.278;6.808;2023-05-16T13:17:20;6.97;;;2.80;;
68870;SDS011;55906;52.278;6.808;2023-05-16T13:19:48;6.35;;;2.70;;
68870;SDS011;55906;52.278;6.808;2023-05-16T13:22:15;6.32;;;2.33;;
68870;SDS011;55906;52.278;6.808;2023-05-16T13:24:42;5.30;;;2.27;;
68870;SDS011;55906;52.278;6.808;2023-05-16T13:27:08;6.35;;;1.88;;
68870;SDS011;55906;52.278;6.808;2023-05-16T13:29:35;6.07;;;2.03;;
68870;SDS011;55906;52.278;6.808;2023-05-16T13:32:03;4.72;;;1.67;;
68870;SDS011;55906;52.278;6.808;2023-05-16T13:34:31;4.70;;;1.63;;
68870;SDS011;55906;52.278;6.808;2023-05-16T13:36:58;4.47;;;1.70;;
68870;SDS011;55906;52.278;6.808;2023-05-16T13:39:24;6.70;;;1.63;;
68870;SDS011;55906;52.278;6.808;2023-05-16T13:41:51;4.47;;;1.50;;
68870;SDS011;55906;52.278;6.808;2023-05-16T13:44:18;4.65;;;1.60;;
68870;SDS011;55906;52.278;6.808;2023-05-16T13:46:46;4.90;;;1.75;;
68870;SDS011;55906;52.278;6.808;2023-05-16T13:49:14;4.70;;;1.60;;
68870;SDS011;55906;52.278;6.808;2023-05-16T13:51:41;4.93;;;1.60;;
68870;SDS011;55906;52.278;6.808;2023-05-16T13:54:07;5.07;;;1.90;;
68870;SDS011;55906;52.278;6.808;2023-05-16T13:56:34;4.70;;;1.60;;
68870;SDS011;55906;52.278;6.808;2023-05-16T13:59:01;4.20;;;1.42;;
68870;SDS011;55906;52.278;6.808;2023-05-16T14:01:27;4.72;;;1.95;;
68870;SDS011;55906;52.278;6.808;2023-05-16T14:03:54;4.72;;;1.98;;
68870;SDS011;55906;52.278;6.808;2023-05-16T14:06:22;6.35;;;2.20;;
68870;SDS011;55906;52.278;6.808;2023-05-16T14:08:48;5.70;;;2.40;;
68870;SDS011;55906;52.278;6.808;2023-05-16T14:11:15;6.88;;;2.30;;
68870;SDS011;55906;52.278;6.808;2023-05-16T14:13:43;5.03;;;1.90;;
68870;SDS011;55906;52.278;6.808;2023-05-16T14:16:10;4.10;;;1.83;;
68870;SDS011;55906;52.278;6.808;2023-05-16T14:18:37;6.47;;;2.20;;
68870;SDS011;55906;52.278;6.808;2023-05-16T14:21:03;5.03;;;2.20;;
68870;SDS011;55906;52.278;6.808;2023-05-16T14:23:31;5.60;;;2.00;;
68870;SDS011;55906;52.278;6.808;2023-05-16T14:25:58;5.68;;;2.58;;
68870;SDS011;55906;52.278;6.808;2023-05-16T14:28:25;4.75;;;2.35;;
68870;SDS011;55906;52.278;6.808;2023-05-16T14:30:52;5.15;;;2.28;;
68870;SDS011;55906;52.278;6.808;2023-05-16T14:33:19;5.03;;;2.45;;
68870;SDS011;55906;52.278;6.808;2023-05-16T14:35:45;5.43;;;2.35;;
68870;SDS011;55906;52.278;6.808;2023-05-16T14:38:13;4.67;;;2.53;;
68870;SDS011;55906;52.278;6.808;2023-05-16T14:40:41;4.57;;;2.53;;
68870;SDS011;55906;52.278;6.808;2023-05-16T14:43:08;7.22;;;2.95;;
68870;SDS011;55906;52.278;6.808;2023-05-16T14:45:35;5.70;;;2.72;;
68870;SDS011;55906;52.278;6.808;2023-05-16T14:48:03;8.73;;;2.97;;
68870;SDS011;55906;52.278;6.808;2023-05-16T14:50:31;6.17;;;3.10;;